createdAt,value
2018-06-10T00:02:07.901Z,22.70
2018-06-10T00:05:18.623Z,23.92
2018-06-10T00:08:29.102Z,25.27
2018-06-10T00:11:40.868Z,25.17
2018-06-10T00:14:51.480Z,23.60
2018-06-10T00:18:02.358Z,26.27
2018-06-10T00:21:14.273Z,25.30
2018-06-10T00:24:24.904Z,23.22
2018-06-10T00:27:35.592Z,26.87
2018-06-10T00:30:47.217Z,31.02
2018-06-10T00:33:58.925Z,26.15
2018-06-10T00:37:10.588Z,27.22
2018-06-10T00:40:21.817Z,25.27
2018-06-10T00:43:32.379Z,28.83
2018-06-10T00:46:44.591Z,31.80
2018-06-10T00:49:55.384Z,30.37
2018-06-10T00:53:05.868Z,31.55
2018-06-10T00:56:33.580Z,32.95
2018-06-10T00:59:44.999Z,31.90
2018-06-10T01:02:55.620Z,33.23
2018-06-10T01:06:06.362Z,33.40
2018-06-10T01:09:16.988Z,30.45
2018-06-10T01:12:27.876Z,29.70
2018-06-10T01:15:38.734Z,30.65
2018-06-10T01:18:49.187Z,31.40
2018-06-10T01:21:59.677Z,30.92
2018-06-10T01:25:10.155Z,32.60
2018-06-10T01:28:21.096Z,30.63
2018-06-10T01:31:31.928Z,28.10
2018-06-10T01:34:42.412Z,30.02
2018-06-10T01:37:53.285Z,30.63
2018-06-10T01:41:04.191Z,31.27
2018-06-10T01:44:15.211Z,29.25
2018-06-10T01:47:26.034Z,32.25
2018-06-10T01:50:36.996Z,27.98
2018-06-10T01:53:48.031Z,30.17
2018-06-10T01:56:58.655Z,29.53
2018-06-10T02:00:08.956Z,30.85
2018-06-10T02:03:19.743Z,31.50
2018-06-10T02:06:30.513Z,32.05
2018-06-10T02:09:40.923Z,32.25
2018-06-10T02:12:51.660Z,30.02
2018-06-10T02:16:02.101Z,32.25
2018-06-10T02:19:13.005Z,28.53
2018-06-10T02:22:23.419Z,27.43
2018-06-10T02:25:33.895Z,27.10
2018-06-10T02:28:44.753Z,30.30
2018-06-10T02:31:55.527Z,26.80
2018-06-10T02:35:06.834Z,29.50
2018-06-10T02:38:17.839Z,29.33
2018-06-10T02:41:29.101Z,30.53
2018-06-10T02:44:40.212Z,29.47
2018-06-10T02:47:50.707Z,28.53
2018-06-10T02:51:05.888Z,31.43
2018-06-10T02:54:16.760Z,30.43
2018-06-10T02:57:27.655Z,32.43
2018-06-10T03:00:39.072Z,35.50
2018-06-10T03:03:52.287Z,36.57
2018-06-10T03:07:02.686Z,42.95
2018-06-10T03:10:14.198Z,44.03
2018-06-10T03:13:24.940Z,49.67
2018-06-10T03:16:35.463Z,51.10
2018-06-10T03:19:46.368Z,53.78
2018-06-10T03:22:57.014Z,55.47
2018-06-10T03:26:07.440Z,53.50
2018-06-10T03:29:17.905Z,56.77
2018-06-10T03:32:28.566Z,56.30
2018-06-10T03:35:39.415Z,59.73
2018-06-10T03:38:50.132Z,58.23
2018-06-10T03:42:00.595Z,60.97
2018-06-10T03:45:11.069Z,56.07
2018-06-10T03:48:21.895Z,59.97
2018-06-10T03:51:32.824Z,69.17
2018-06-10T03:54:43.251Z,67.05
2018-06-10T03:57:54.355Z,63.80
2018-06-10T04:01:04.877Z,58.40
2018-06-10T04:04:15.639Z,59.83
2018-06-10T04:07:26.341Z,59.93
2018-06-10T04:10:37.116Z,58.90
2018-06-10T04:13:47.861Z,58.10
2018-06-10T04:16:59.116Z,59.80
2018-06-10T04:20:09.695Z,59.37
2018-06-10T04:23:20.471Z,59.10
2018-06-10T04:26:31.010Z,62.03
2018-06-10T04:29:41.441Z,58.50
2018-06-10T04:32:52.087Z,58.17
2018-06-10T04:36:02.395Z,54.87
2018-06-10T04:39:13.587Z,57.93
2018-06-10T04:42:24.451Z,56.60
2018-06-10T04:45:35.204Z,60.93
2018-06-10T04:48:45.825Z,57.57
2018-06-10T04:51:56.165Z,58.63
2018-06-10T04:55:07.548Z,57.00
2018-06-10T04:58:18.348Z,53.60
2018-06-10T05:01:29.155Z,55.97
2018-06-10T05:04:39.463Z,58.20
2018-06-10T05:07:50.292Z,56.07
2018-06-10T05:11:01.113Z,51.03
2018-06-10T05:14:11.857Z,55.17
2018-06-10T05:17:22.576Z,56.47
2018-06-10T05:20:33.435Z,53.53
2018-06-10T05:23:44.036Z,52.37
2018-06-10T05:26:55.455Z,54.17
2018-06-10T05:30:06.362Z,58.20
2018-06-10T05:33:17.220Z,54.17
2018-06-10T05:36:28.357Z,52.73
2018-06-10T05:39:39.054Z,53.27
2018-06-10T05:42:49.720Z,50.30
2018-06-10T05:46:00.769Z,52.47
2018-06-10T05:49:11.479Z,47.00
2018-06-10T05:52:22.205Z,46.37
2018-06-10T05:55:33.353Z,42.93
2018-06-10T05:58:44.167Z,43.00
2018-06-10T06:01:54.765Z,43.13
2018-06-10T06:05:05.397Z,43.77
2018-06-10T06:08:16.299Z,45.33
2018-06-10T06:11:27.992Z,45.33
2018-06-10T06:14:39.896Z,40.30
2018-06-10T06:17:50.351Z,39.23
2018-06-10T06:21:00.657Z,43.47
2018-06-10T06:24:11.507Z,43.93
2018-06-10T06:27:23.752Z,45.73
2018-06-10T06:30:34.446Z,45.35
2018-06-10T06:33:45.143Z,45.33
2018-06-10T06:36:55.853Z,44.50
2018-06-10T06:40:06.495Z,47.97
2018-06-10T06:43:17.367Z,45.00
2018-06-10T06:46:27.994Z,43.73
2018-06-10T06:49:38.699Z,46.27
2018-06-10T06:52:49.219Z,47.33
2018-06-10T06:56:01.305Z,41.50
2018-06-10T06:59:12.003Z,40.73
2018-06-10T07:02:22.400Z,41.77
2018-06-10T07:05:32.936Z,40.47
2018-06-10T07:08:43.364Z,42.23
2018-06-10T07:11:54.237Z,41.50
2018-06-10T07:15:04.985Z,37.13
2018-06-10T07:18:15.366Z,36.60
2018-06-10T07:21:26.265Z,38.90
2018-06-10T07:24:36.671Z,33.13
2018-06-10T07:27:47.568Z,31.83
2018-06-10T07:30:58.066Z,28.60
2018-06-10T07:34:08.987Z,29.50
2018-06-10T07:37:19.674Z,30.47
2018-06-10T07:40:30.473Z,26.77
2018-06-10T07:43:41.112Z,26.07
2018-06-10T07:46:51.806Z,27.03
2018-06-10T07:50:04.717Z,27.17
2018-06-10T07:53:15.408Z,27.57
2018-06-10T07:56:26.065Z,23.80
2018-06-10T07:59:36.977Z,26.73
2018-06-10T08:02:47.486Z,25.63
2018-06-10T08:05:58.576Z,22.80
2018-06-10T08:09:09.433Z,20.80
2018-06-10T08:12:20.026Z,22.67
2018-06-10T08:15:30.861Z,18.43
2018-06-10T08:18:42.628Z,20.10
2018-06-10T08:21:53.265Z,17.80
2018-06-10T08:25:06.017Z,19.77
2018-06-10T08:28:17.072Z,20.30
2018-06-10T08:31:27.921Z,21.63
2018-06-10T08:34:38.400Z,20.55
2018-06-10T08:37:48.879Z,21.43
2018-06-10T08:40:59.706Z,23.07
2018-06-10T08:44:10.638Z,20.83
2018-06-10T08:47:21.361Z,19.85
2018-06-10T08:50:32.391Z,19.57
2018-06-10T08:53:43.470Z,18.65
2018-06-10T08:56:54.440Z,19.00
2018-06-10T09:00:05.232Z,19.60
2018-06-10T09:03:16.047Z,21.90
2018-06-10T09:06:27.007Z,17.95
2018-06-10T09:09:37.403Z,18.67
2018-06-10T09:12:48.414Z,18.32
2018-06-10T09:15:58.744Z,18.25
2018-06-10T09:19:09.217Z,19.43
2018-06-10T09:22:19.793Z,19.82
2018-06-10T09:25:31.026Z,20.20
2018-06-10T09:28:41.887Z,20.17
2018-06-10T09:31:52.385Z,19.40
2018-06-10T09:35:03.118Z,18.62
2018-06-10T09:38:13.743Z,18.37
2018-06-10T09:41:24.648Z,19.20
2018-06-10T09:44:35.825Z,18.23
2018-06-10T09:47:46.367Z,17.02
2018-06-10T09:50:57.080Z,17.12
2018-06-10T09:54:09.905Z,16.77
2018-06-10T09:57:20.584Z,18.23
2018-06-10T10:00:31.046Z,20.57
2018-06-10T10:03:41.453Z,22.20
2018-06-10T10:06:52.138Z,24.12
2018-06-10T10:10:03.110Z,24.60
2018-06-10T10:13:13.545Z,24.90
2018-06-10T10:16:24.345Z,22.65
2018-06-10T10:19:35.326Z,25.23
2018-06-10T10:22:46.206Z,23.07
2018-06-10T10:25:57.117Z,23.07
2018-06-10T10:29:07.840Z,21.97
2018-06-10T10:32:18.513Z,21.25
2018-06-10T10:35:29.392Z,23.55
2018-06-10T10:38:40.392Z,22.07
2018-06-10T10:41:50.709Z,20.02
2018-06-10T10:45:01.601Z,22.10
2018-06-10T10:48:13.378Z,20.15
2018-06-10T10:51:24.543Z,20.75
2018-06-10T10:54:34.877Z,23.00
2018-06-10T10:57:45.301Z,21.70
2018-06-10T11:01:00.649Z,19.30
2018-06-10T11:04:11.480Z,19.27
2018-06-10T11:07:23.179Z,17.50
2018-06-10T11:10:34.409Z,17.42
2018-06-10T11:13:45.233Z,19.23
2018-06-10T11:16:56.123Z,19.52
2018-06-10T11:20:06.548Z,21.40
2018-06-10T11:23:18.076Z,26.70
2018-06-10T11:26:29.347Z,20.17
2018-06-10T11:29:40.197Z,28.45
2018-06-10T11:32:51.115Z,27.58
2018-06-10T11:36:01.959Z,27.42
2018-06-10T11:39:12.904Z,31.20
2018-06-10T11:42:27.779Z,28.27
2018-06-10T11:45:38.516Z,26.30
2018-06-10T11:48:49.368Z,28.62
2018-06-10T11:52:00.321Z,22.82
2018-06-10T11:55:11.106Z,26.65
2018-06-10T11:58:21.731Z,24.00
2018-06-10T12:01:32.668Z,25.60
2018-06-10T12:04:43.536Z,26.10
2018-06-10T12:07:54.460Z,26.95
2018-06-10T12:11:04.714Z,28.00
2018-06-10T12:14:15.614Z,27.02
2018-06-10T12:17:26.510Z,27.50
2018-06-10T12:20:37.852Z,24.30
2018-06-10T12:23:48.750Z,24.67
2018-06-10T12:26:59.613Z,24.72
2018-06-10T12:30:10.760Z,21.05
2018-06-10T12:33:21.168Z,23.52
2018-06-10T12:36:32.484Z,22.80
2018-06-10T12:39:43.421Z,23.92
2018-06-10T12:42:54.241Z,21.65
2018-06-10T12:46:05.505Z,21.48
2018-06-10T12:49:16.376Z,21.42
2018-06-10T12:52:27.368Z,21.17
2018-06-10T12:55:38.366Z,20.00
2018-06-10T12:58:48.931Z,17.32
2018-06-10T13:01:59.849Z,17.98
2018-06-10T13:05:10.338Z,18.20
2018-06-10T13:08:21.720Z,18.30
2018-06-10T13:11:32.468Z,18.80
2018-06-10T13:14:43.478Z,17.60
2018-06-10T13:17:53.814Z,16.30
2018-06-10T13:21:04.153Z,17.50
2018-06-10T13:24:14.969Z,17.52
2018-06-10T13:27:25.905Z,18.80
2018-06-10T13:30:36.323Z,16.73
2018-06-10T13:33:46.981Z,16.42
2018-06-10T13:36:58.240Z,17.77
2018-06-10T13:40:09.186Z,16.87
2018-06-10T13:43:20.111Z,16.95
2018-06-10T13:46:31.239Z,15.20
2018-06-10T13:49:41.976Z,17.05
2018-06-10T13:52:52.413Z,16.32
2018-06-10T13:56:03.341Z,15.68
2018-06-10T13:59:14.165Z,14.65
2018-06-10T14:02:24.896Z,14.47
2018-06-10T14:05:35.851Z,13.70
2018-06-10T14:08:46.391Z,12.05
2018-06-10T14:11:57.111Z,13.48
2018-06-10T14:15:08.370Z,12.13
2018-06-10T14:18:19.383Z,13.32
2018-06-10T14:21:29.744Z,12.75
2018-06-10T14:24:41.124Z,12.23
2018-06-10T14:27:52.025Z,12.88
2018-06-10T14:31:02.735Z,12.30
2018-06-10T14:34:12.954Z,12.40
2018-06-10T14:37:24.972Z,11.53
2018-06-10T14:40:35.754Z,13.20
2018-06-10T14:43:46.707Z,12.23
2018-06-10T14:46:57.292Z,11.68
2018-06-10T14:50:08.173Z,11.40
2018-06-10T14:53:18.645Z,10.65
2018-06-10T14:56:30.073Z,10.93
2018-06-10T14:59:41.044Z,9.40
2018-06-10T15:02:51.468Z,9.93
2018-06-10T15:06:02.140Z,10.08
2018-06-10T15:09:12.640Z,10.30
2018-06-10T15:12:23.543Z,9.43
2018-06-10T15:15:34.492Z,8.70
2018-06-10T15:18:45.158Z,9.93
2018-06-10T15:21:56.205Z,10.32
2018-06-10T15:25:07.165Z,10.25
2018-06-10T15:28:18.417Z,9.65
2018-06-10T15:31:28.974Z,10.18
2018-06-10T15:34:39.744Z,10.68
2018-06-10T15:37:51.191Z,10.90
2018-06-10T15:41:01.581Z,9.75
2018-06-10T15:44:12.054Z,8.83
2018-06-10T15:47:22.908Z,9.43
2018-06-10T15:50:33.513Z,10.50
2018-06-10T15:53:44.056Z,10.32
2018-06-10T15:56:54.672Z,9.30
2018-06-10T16:00:05.373Z,9.60
2018-06-10T16:03:15.691Z,9.40
2018-06-10T16:06:26.256Z,7.90
2018-06-10T16:09:37.504Z,7.45
2018-06-10T16:12:48.816Z,7.47
2018-06-10T16:16:01.598Z,7.20
2018-06-10T16:19:11.984Z,6.85
2018-06-10T16:22:23.044Z,6.62
2018-06-10T16:25:34.046Z,6.10
2018-06-10T16:28:45.079Z,6.65
2018-06-10T16:31:55.968Z,6.12
2018-06-10T16:35:08.568Z,6.30
2018-06-10T16:38:19.911Z,6.83
2018-06-10T16:41:32.046Z,6.87
2018-06-10T16:44:42.805Z,6.55
2018-06-10T16:47:58.086Z,7.00
2018-06-10T16:51:08.874Z,6.87
2018-06-10T16:54:19.757Z,6.62
2018-06-10T16:57:32.137Z,6.65
2018-06-10T17:00:42.964Z,6.90
2018-06-10T17:03:53.873Z,6.70
2018-06-10T17:07:04.733Z,6.75
2018-06-10T17:10:15.572Z,6.67
2018-06-10T17:13:26.518Z,6.90
2018-06-10T17:16:37.163Z,6.97
2018-06-10T17:19:48.383Z,7.60
2018-06-10T17:23:02.836Z,6.90
2018-06-10T17:26:13.769Z,7.10
2018-06-10T17:29:24.669Z,6.42
2018-06-10T17:32:37.130Z,6.53
2018-06-10T17:35:48.027Z,6.90
2018-06-10T17:38:58.916Z,7.62
2018-06-10T17:42:10.360Z,8.18
2018-06-10T17:45:21.006Z,8.43
2018-06-10T17:48:31.985Z,8.80
2018-06-10T17:51:42.593Z,9.58
2018-06-10T17:54:53.123Z,9.73
2018-06-10T17:58:04.287Z,10.78
2018-06-10T18:01:15.325Z,9.58
2018-06-10T18:04:26.574Z,9.90
2018-06-10T18:07:37.233Z,11.18
2018-06-10T18:10:47.804Z,10.20
2018-06-10T18:13:58.729Z,10.35
2018-06-10T18:17:09.828Z,11.15
2018-06-10T18:20:22.305Z,10.85
2018-06-10T18:23:32.912Z,11.55
2018-06-10T18:26:45.421Z,11.43
2018-06-10T18:29:56.382Z,12.03
2018-06-10T18:33:07.360Z,11.65
2018-06-10T18:36:18.302Z,11.53
2018-06-10T18:39:28.955Z,13.55
2018-06-10T18:42:39.437Z,12.03
2018-06-10T18:45:49.863Z,12.93
2018-06-10T18:49:00.826Z,12.45
2018-06-10T18:52:11.725Z,12.55
2018-06-10T18:55:23.628Z,14.38
2018-06-10T18:58:34.285Z,14.58
2018-06-10T19:01:44.629Z,14.55
2018-06-10T19:04:55.113Z,14.70
2018-06-10T19:08:06.308Z,15.15
2018-06-10T19:11:17.581Z,15.10
2018-06-10T19:14:28.804Z,17.40
2018-06-10T19:17:40.655Z,16.27
2018-06-10T19:20:55.915Z,15.17
2018-06-10T19:24:06.671Z,16.20
2018-06-10T19:27:21.992Z,17.30
2018-06-10T19:30:32.422Z,16.57
2018-06-10T19:33:43.471Z,17.30
2018-06-10T19:36:54.386Z,17.00
2018-06-10T19:40:04.983Z,16.43
2018-06-10T19:43:15.821Z,17.63
2018-06-10T19:46:26.895Z,18.17
2018-06-10T19:49:37.560Z,18.10
2018-06-10T19:52:48.536Z,18.03
2018-06-10T19:56:00.214Z,18.53
2018-06-10T19:59:11.497Z,16.70
2018-06-10T20:02:22.606Z,16.77
2018-06-10T20:05:33.790Z,18.30
2018-06-10T20:08:44.660Z,19.33
2018-06-10T20:11:55.796Z,18.67
2018-06-10T20:15:06.597Z,19.67
2018-06-10T20:18:17.550Z,19.10
2018-06-10T20:21:28.562Z,18.90
2018-06-10T20:24:40.375Z,19.03
2018-06-10T20:27:51.338Z,19.53
2018-06-10T20:31:01.943Z,18.77
2018-06-10T20:34:12.387Z,21.17
2018-06-10T20:37:23.339Z,20.33
2018-06-10T20:40:34.976Z,20.80
2018-06-10T20:43:45.508Z,21.10
2018-06-10T20:46:56.516Z,20.87
2018-06-10T20:50:08.416Z,22.13
2018-06-10T20:53:19.540Z,20.93
2018-06-10T20:56:29.944Z,23.87
2018-06-10T20:59:40.921Z,23.67
2018-06-10T21:02:51.511Z,22.27
2018-06-10T21:06:02.148Z,23.53
2018-06-10T21:09:12.836Z,21.60
2018-06-10T21:12:23.716Z,23.50
2018-06-10T21:15:34.632Z,22.87
2018-06-10T21:18:46.097Z,25.70
2018-06-10T21:21:56.983Z,24.37
2018-06-10T21:25:07.828Z,24.90
2018-06-10T21:28:19.210Z,24.77
2018-06-10T21:31:29.998Z,24.47
2018-06-10T21:34:40.841Z,23.03
2018-06-10T21:37:51.513Z,24.10
2018-06-10T21:41:02.257Z,23.10
2018-06-10T21:44:12.610Z,22.60
2018-06-10T21:47:24.008Z,23.53
2018-06-10T21:50:34.983Z,22.67
2018-06-10T21:53:47.552Z,24.00
2018-06-10T21:56:58.881Z,22.57
2018-06-10T22:00:25.529Z,22.40
2018-06-10T22:03:35.933Z,23.57
2018-06-10T22:06:51.753Z,23.23
2018-06-10T22:10:02.862Z,21.77
2018-06-10T22:13:20.064Z,22.33
2018-06-10T22:16:32.542Z,23.53
2018-06-10T22:19:49.032Z,23.57
2018-06-10T22:23:00.067Z,22.90
2018-06-10T22:26:12.326Z,23.67
2018-06-10T22:29:24.379Z,24.20
2018-06-10T22:32:36.176Z,22.43
2018-06-10T22:35:47.508Z,24.63
2018-06-10T22:38:58.700Z,23.50
2018-06-10T22:42:09.437Z,23.77
2018-06-10T22:45:20.813Z,23.30
2018-06-10T22:48:31.468Z,24.70
2018-06-10T22:51:42.204Z,23.67
2018-06-10T22:54:53.217Z,23.53
2018-06-10T22:58:03.660Z,23.07
2018-06-10T23:01:14.578Z,25.33
2018-06-10T23:04:25.368Z,22.83
2018-06-10T23:07:36.104Z,23.97
2018-06-10T23:10:46.796Z,23.47
2018-06-10T23:13:57.839Z,23.83
2018-06-10T23:17:08.677Z,24.27
2018-06-10T23:20:19.296Z,23.47
2018-06-10T23:23:29.824Z,25.00
2018-06-10T23:26:40.678Z,24.50
2018-06-10T23:29:51.927Z,24.83
2018-06-10T23:33:03.053Z,24.67
2018-06-10T23:36:14.010Z,25.30
2018-06-10T23:39:24.877Z,23.17
2018-06-10T23:42:36.271Z,24.03
2018-06-10T23:45:47.102Z,26.17
2018-06-10T23:48:57.958Z,27.37
2018-06-10T23:52:08.592Z,25.90
2018-06-10T23:55:19.912Z,25.73
2018-06-10T23:58:31.471Z,26.33
